createdAt,value
2022-11-27T00:01:33.108Z,9.94
2022-11-27T00:04:03.912Z,9.47
2022-11-27T00:06:35.079Z,8.19
2022-11-27T00:09:09.235Z,7.32
2022-11-27T00:11:40.859Z,8.09
2022-11-27T00:14:12.381Z,9.27
2022-11-27T00:16:43.691Z,9.33
2022-11-27T00:19:15.152Z,8.16
2022-11-27T00:21:46.089Z,7.14
2022-11-27T00:24:16.982Z,6.77
2022-11-27T00:26:50.067Z,7.94
2022-11-27T00:29:22.178Z,9.24
2022-11-27T00:31:53.561Z,9.67
2022-11-27T00:34:24.128Z,8.63
2022-11-27T00:36:57.959Z,7.43
2022-11-27T00:39:28.907Z,7.06
2022-11-27T00:42:00.140Z,8.17
2022-11-27T00:44:31.016Z,9.27
2022-11-27T00:47:02.972Z,9.64
2022-11-27T00:49:33.880Z,8.58
2022-11-27T00:52:04.953Z,7.47
2022-11-27T00:54:35.383Z,6.93
2022-11-27T00:57:06.967Z,8.02
2022-11-27T00:59:39.695Z,9.21
2022-11-27T01:02:10.948Z,9.44
2022-11-27T01:04:42.262Z,8.32
2022-11-27T01:07:13.395Z,7.22
2022-11-27T01:09:43.875Z,6.90
2022-11-27T01:12:15.055Z,8.11
2022-11-27T01:14:45.513Z,9.31
2022-11-27T01:17:18.264Z,9.54
2022-11-27T01:19:48.937Z,8.11
2022-11-27T01:22:20.205Z,7.27
2022-11-27T01:24:50.724Z,8.21
2022-11-27T01:27:21.640Z,9.26
2022-11-27T01:29:52.178Z,9.48
2022-11-27T01:32:23.408Z,8.32
2022-11-27T01:34:54.531Z,7.41
2022-11-27T01:37:26.272Z,8.08
2022-11-27T01:39:56.845Z,9.02
2022-11-27T01:42:28.019Z,9.70
2022-11-27T01:44:58.516Z,9.44
2022-11-27T01:47:35.841Z,8.32
2022-11-27T01:50:13.571Z,7.39
2022-11-27T01:52:47.923Z,6.88
2022-11-27T01:55:21.901Z,7.84
2022-11-27T01:57:58.078Z,9.07
2022-11-27T02:00:28.813Z,9.53
2022-11-27T02:02:59.788Z,8.60
2022-11-27T02:05:30.692Z,7.58
2022-11-27T02:08:04.405Z,7.09
2022-11-27T02:10:40.118Z,8.10
2022-11-27T02:13:12.870Z,9.26
2022-11-27T02:15:45.467Z,9.65
2022-11-27T02:18:24.986Z,8.66
2022-11-27T02:20:56.864Z,7.56
2022-11-27T02:23:38.191Z,7.05
2022-11-27T02:26:19.251Z,8.17
2022-11-27T02:29:09.808Z,9.38
2022-11-27T02:31:42.844Z,8.74
2022-11-27T02:48:07.986Z,7.93
2022-11-27T02:50:39.483Z,8.02
2022-11-27T02:53:11.953Z,9.18
2022-11-27T02:55:44.322Z,9.66
2022-11-27T02:58:17.259Z,8.21
2022-11-27T03:00:48.450Z,7.56
2022-11-27T03:03:21.475Z,8.47
2022-11-27T03:05:54.009Z,9.30
2022-11-27T03:08:27.111Z,9.51
2022-11-27T03:11:03.896Z,8.44
2022-11-27T03:13:38.849Z,7.34
2022-11-27T03:16:11.822Z,7.05
2022-11-27T03:18:43.917Z,8.23
2022-11-27T03:21:18.029Z,9.30
2022-11-27T03:23:48.848Z,9.59
2022-11-27T03:26:19.769Z,8.51
2022-11-27T03:28:52.092Z,7.48
2022-11-27T03:31:26.362Z,7.55
2022-11-27T03:33:57.952Z,8.75
2022-11-27T03:36:28.600Z,9.67
2022-11-27T03:38:59.520Z,9.86
2022-11-27T03:41:36.123Z,8.79
2022-11-27T03:44:12.015Z,7.66
2022-11-27T03:46:47.631Z,7.33
2022-11-27T03:49:22.667Z,8.52
2022-11-27T03:51:55.615Z,9.54
2022-11-27T03:54:32.625Z,9.88
2022-11-27T03:57:06.637Z,8.68
2022-11-27T03:59:38.925Z,7.62
2022-11-27T04:02:12.762Z,8.05
2022-11-27T04:04:43.748Z,9.14
2022-11-27T04:07:17.841Z,9.88
2022-11-27T04:09:48.818Z,10.36
2022-11-27T04:12:19.333Z,10.44
2022-11-27T04:14:50.062Z,9.42
2022-11-27T04:17:20.594Z,8.29
2022-11-27T04:19:51.661Z,7.49
2022-11-27T04:22:22.196Z,7.24
2022-11-27T04:24:52.903Z,8.39
2022-11-27T04:27:24.141Z,9.56
2022-11-27T04:29:55.697Z,10.00
2022-11-27T04:32:26.428Z,8.91
2022-11-27T04:34:57.200Z,7.95
2022-11-27T04:37:27.804Z,8.64
2022-11-27T04:39:58.933Z,9.62
2022-11-27T04:42:29.824Z,9.78
2022-11-27T04:45:01.051Z,8.46
2022-11-27T04:47:31.813Z,7.89
2022-11-27T04:50:02.865Z,8.88
2022-11-27T04:52:33.626Z,9.78
2022-11-27T04:55:04.873Z,9.48
2022-11-27T04:57:35.677Z,8.21
2022-11-27T05:00:07.711Z,7.23
2022-11-27T05:02:38.902Z,6.93
2022-11-27T05:05:10.565Z,8.09
2022-11-27T05:07:41.776Z,9.14
2022-11-27T05:10:13.518Z,9.88
2022-11-27T05:12:43.898Z,10.45
2022-11-27T05:15:14.769Z,10.46
2022-11-27T05:17:45.559Z,9.35
2022-11-27T05:20:16.416Z,8.29
2022-11-27T05:22:48.570Z,7.53
2022-11-27T05:25:19.539Z,7.28
2022-11-27T05:27:50.301Z,8.36
2022-11-27T05:30:21.044Z,9.22
2022-11-27T05:32:51.566Z,9.87
2022-11-27T05:35:22.457Z,10.21
2022-11-27T05:37:53.160Z,9.09
2022-11-27T05:40:24.096Z,7.96
2022-11-27T05:42:54.522Z,8.56
2022-11-27T05:45:26.603Z,9.63
2022-11-27T05:47:57.061Z,9.87
2022-11-27T05:50:28.689Z,10.17
2022-11-27T05:52:59.468Z,10.56
2022-11-27T05:55:30.188Z,10.44
2022-11-27T05:58:00.661Z,9.21
2022-11-27T06:00:31.868Z,8.10
2022-11-27T06:03:02.448Z,7.54
2022-11-27T06:05:33.312Z,8.47
2022-11-27T06:08:03.961Z,9.59
2022-11-27T06:10:35.149Z,10.24
2022-11-27T06:13:05.602Z,10.72
2022-11-27T06:15:37.409Z,10.82
2022-11-27T06:18:08.375Z,9.78
2022-11-27T06:20:43.672Z,8.72
2022-11-27T06:23:15.262Z,7.86
2022-11-27T06:25:46.099Z,7.59
2022-11-27T06:28:16.943Z,8.70
2022-11-27T06:30:47.566Z,9.82
2022-11-27T06:33:18.094Z,10.52
2022-11-27T06:35:48.964Z,10.79
2022-11-27T06:38:19.722Z,9.87
2022-11-27T06:40:50.543Z,8.77
2022-11-27T06:43:20.976Z,7.94
2022-11-27T06:45:58.074Z,7.58
2022-11-27T06:48:28.741Z,8.68
2022-11-27T06:51:02.217Z,9.73
2022-11-27T06:53:34.705Z,10.48
2022-11-27T06:56:05.886Z,10.63
2022-11-27T06:58:36.635Z,9.58
2022-11-27T07:01:08.490Z,8.47
2022-11-27T07:03:39.495Z,7.90
2022-11-27T07:06:13.747Z,8.80
2022-11-27T07:08:44.591Z,9.89
2022-11-27T07:11:16.914Z,10.62
2022-11-27T07:13:47.859Z,11.13
2022-11-27T07:16:19.537Z,10.99
2022-11-27T07:18:51.365Z,9.85
2022-11-27T07:21:22.651Z,8.73
2022-11-27T07:23:53.443Z,7.92
2022-11-27T07:26:25.201Z,7.61
2022-11-27T07:28:56.514Z,8.67
2022-11-27T07:31:28.437Z,9.66
2022-11-27T07:33:59.457Z,10.20
2022-11-27T07:36:31.172Z,10.69
2022-11-27T07:39:02.038Z,10.95
2022-11-27T07:41:34.234Z,11.03
2022-11-27T07:44:05.702Z,9.98
2022-11-27T07:46:36.797Z,8.91
2022-11-27T07:49:07.731Z,8.09
2022-11-27T07:51:38.826Z,7.80
2022-11-27T07:54:11.460Z,8.94
2022-11-27T07:56:42.144Z,10.08
2022-11-27T07:59:13.251Z,10.78
2022-11-27T08:01:45.022Z,11.20
2022-11-27T08:04:21.698Z,10.51
2022-11-27T08:06:52.295Z,9.24
2022-11-27T08:09:23.358Z,8.36
2022-11-27T08:11:53.904Z,7.67
2022-11-27T08:14:24.932Z,8.16
2022-11-27T08:16:55.408Z,9.32
2022-11-27T08:19:26.876Z,10.11
2022-11-27T08:21:57.716Z,10.69
2022-11-27T08:24:28.953Z,11.12
2022-11-27T08:26:59.700Z,11.12
2022-11-27T08:29:33.908Z,9.95
2022-11-27T08:32:05.105Z,8.78
2022-11-27T08:34:36.396Z,8.04
2022-11-27T08:37:07.138Z,8.39
2022-11-27T08:39:38.455Z,9.59
2022-11-27T08:42:08.799Z,10.38
2022-11-27T08:44:40.524Z,10.93
2022-11-27T08:47:11.292Z,11.19
2022-11-27T08:49:46.053Z,10.22
2022-11-27T08:52:17.726Z,9.14
2022-11-27T08:54:52.005Z,8.46
2022-11-27T08:57:26.476Z,9.11
2022-11-27T08:59:57.240Z,10.24
2022-11-27T09:02:27.748Z,11.05
2022-11-27T09:04:58.705Z,11.21
2022-11-27T09:07:29.579Z,10.29
2022-11-27T09:10:01.102Z,9.31
2022-11-27T09:12:31.625Z,8.92
2022-11-27T09:15:02.907Z,9.84
2022-11-27T09:17:33.642Z,10.77
2022-11-27T09:20:04.785Z,11.31
2022-11-27T09:22:36.064Z,10.76
2022-11-27T09:25:07.728Z,9.69
2022-11-27T09:27:39.183Z,8.82
2022-11-27T09:30:11.078Z,8.47
2022-11-27T09:32:41.600Z,9.43
2022-11-27T09:35:12.445Z,10.44
2022-11-27T09:37:42.947Z,10.97
2022-11-27T09:40:17.230Z,10.13
2022-11-27T09:42:51.176Z,9.07
2022-11-27T09:45:23.349Z,8.85
2022-11-27T09:47:55.985Z,9.76
2022-11-27T09:50:28.986Z,10.77
2022-11-27T09:53:00.868Z,10.68
2022-11-27T09:55:34.315Z,9.54
2022-11-27T09:58:06.912Z,8.56
2022-11-27T10:00:38.725Z,8.20
2022-11-27T10:03:14.318Z,9.37
2022-11-27T10:05:49.017Z,10.40
2022-11-27T10:08:25.299Z,10.76
2022-11-27T10:11:02.937Z,9.93
2022-11-27T10:13:42.340Z,8.98
2022-11-27T10:16:20.427Z,9.37
2022-11-27T10:18:53.047Z,10.41
2022-11-27T10:21:28.804Z,11.15
2022-11-27T10:24:02.727Z,11.29
2022-11-27T10:26:38.676Z,10.32
2022-11-27T10:29:13.999Z,9.28
2022-11-27T10:31:49.550Z,8.78
2022-11-27T10:34:27.307Z,9.84
2022-11-27T10:37:00.092Z,10.59
2022-11-27T10:39:33.828Z,9.80
2022-11-27T10:42:09.195Z,8.87
2022-11-27T10:44:43.233Z,9.01
2022-11-27T10:47:15.515Z,10.16
2022-11-27T10:49:48.071Z,9.55
2022-11-27T10:52:20.263Z,8.60
2022-11-27T10:54:56.526Z,7.92
2022-11-27T10:57:32.544Z,7.76
2022-11-27T11:00:08.075Z,9.04
2022-11-27T11:02:40.197Z,10.29
2022-11-27T11:05:35.049Z,10.82
2022-11-27T11:08:17.447Z,9.87
2022-11-27T11:10:51.996Z,8.93
2022-11-27T11:13:24.381Z,8.40
2022-11-27T11:15:56.295Z,9.28
2022-11-27T11:18:28.216Z,10.52
2022-11-27T11:20:59.758Z,11.19
2022-11-27T11:23:32.629Z,10.36
2022-11-27T11:26:05.439Z,9.43
2022-11-27T11:28:42.026Z,8.87
2022-11-27T11:31:16.065Z,9.70
2022-11-27T11:33:52.132Z,10.63
2022-11-27T11:36:22.950Z,9.88
2022-11-27T11:38:54.831Z,9.04
2022-11-27T11:41:25.631Z,8.70
2022-11-27T11:43:57.859Z,9.79
2022-11-27T11:46:30.055Z,10.93
2022-11-27T11:49:02.590Z,11.44
2022-11-27T11:51:45.797Z,10.63
2022-11-27T11:54:25.230Z,9.59
2022-11-27T11:56:58.025Z,8.85
2022-11-27T11:59:32.470Z,8.65
2022-11-27T12:02:22.328Z,9.81
2022-11-27T12:05:06.467Z,10.86
2022-11-27T12:07:52.224Z,10.65
2022-11-27T12:10:26.450Z,9.72
2022-11-27T12:13:01.556Z,8.99
2022-11-27T12:15:34.927Z,8.81
2022-11-27T12:18:11.003Z,10.06
2022-11-27T12:20:45.657Z,11.18
2022-11-27T12:23:28.344Z,11.56
2022-11-27T12:26:04.287Z,10.59
2022-11-27T12:28:43.080Z,9.64
2022-11-27T12:31:19.666Z,8.93
2022-11-27T12:33:57.576Z,8.40
2022-11-27T12:36:34.862Z,8.57
2022-11-27T12:39:10.993Z,9.93
2022-11-27T12:41:52.869Z,10.68
2022-11-27T12:44:26.496Z,9.96
2022-11-27T12:47:00.206Z,9.11
2022-11-27T12:49:33.451Z,8.50
2022-11-27T12:52:10.327Z,8.41
2022-11-27T12:54:43.891Z,9.72
2022-11-27T12:57:16.837Z,10.84
2022-11-27T12:59:50.791Z,10.85
2022-11-27T13:02:28.273Z,9.82
2022-11-27T13:05:02.474Z,8.96
2022-11-27T13:07:40.908Z,8.33
2022-11-27T13:10:20.520Z,8.66
2022-11-27T13:12:53.395Z,10.07
2022-11-27T13:15:25.971Z,11.04
2022-11-27T13:18:00.049Z,11.33
2022-11-27T13:20:34.979Z,10.38
2022-11-27T13:23:06.018Z,9.39
2022-11-27T13:25:40.540Z,8.65
2022-11-27T13:28:18.040Z,8.07
2022-11-27T13:30:50.052Z,7.79
2022-11-27T13:33:26.008Z,8.85
2022-11-27T13:35:56.526Z,10.11
2022-11-27T13:38:28.194Z,10.90
2022-11-27T13:41:01.322Z,11.07
2022-11-27T13:43:31.748Z,10.13
2022-11-27T13:46:04.175Z,9.17
2022-11-27T13:48:35.823Z,8.46
2022-11-27T13:51:07.188Z,8.72
2022-11-27T13:53:39.292Z,9.86
2022-11-27T13:56:10.339Z,10.66
2022-11-27T13:58:42.759Z,10.61
2022-11-27T14:01:19.075Z,9.57
2022-11-27T14:03:50.485Z,8.65
2022-11-27T14:06:22.704Z,8.01
2022-11-27T14:08:55.576Z,7.81
2022-11-27T14:11:34.722Z,8.99
2022-11-27T14:14:13.288Z,10.23
2022-11-27T14:16:44.020Z,10.95
2022-11-27T14:19:33.380Z,10.93
2022-11-27T14:22:14.904Z,9.70
2022-11-27T14:24:46.875Z,8.71
2022-11-27T14:27:21.551Z,8.03
2022-11-27T14:29:52.847Z,8.31
2022-11-27T14:32:23.720Z,9.54
2022-11-27T14:34:54.711Z,10.45
2022-11-27T14:37:26.203Z,10.99
2022-11-27T14:39:56.898Z,11.14
2022-11-27T14:42:30.648Z,10.20
2022-11-27T14:45:07.588Z,9.06
2022-11-27T14:47:40.079Z,8.22
2022-11-27T14:50:14.684Z,7.94
2022-11-27T14:52:48.073Z,9.08
2022-11-27T14:55:20.316Z,10.16
2022-11-27T14:57:51.381Z,10.83
2022-11-27T15:00:25.609Z,11.06
2022-11-27T15:02:56.939Z,10.10
2022-11-27T15:05:30.241Z,8.96
2022-11-27T15:08:02.271Z,8.12
2022-11-27T15:10:36.694Z,7.84
2022-11-27T15:13:08.619Z,8.93
2022-11-27T15:15:41.466Z,10.05
2022-11-27T15:18:19.602Z,10.79
2022-11-27T15:20:50.973Z,11.24
2022-11-27T15:23:24.501Z,10.69
2022-11-27T15:26:09.669Z,9.49
2022-11-27T15:28:44.006Z,8.29
2022-11-27T15:31:26.019Z,8.21
2022-11-27T15:34:11.525Z,9.40
2022-11-27T15:36:43.378Z,10.33
2022-11-27T15:39:19.121Z,10.94
2022-11-27T15:41:54.351Z,11.31
2022-11-27T15:44:25.938Z,11.17
2022-11-27T15:46:58.666Z,9.91
2022-11-27T15:49:30.387Z,8.80
2022-11-27T15:52:01.363Z,8.01
2022-11-27T15:54:31.848Z,8.40
2022-11-27T15:57:03.451Z,9.49
2022-11-27T15:59:34.082Z,10.24
2022-11-27T16:02:05.569Z,10.71
2022-11-27T16:04:36.247Z,10.89
2022-11-27T16:07:08.588Z,9.94
2022-11-27T16:09:39.947Z,8.84
2022-11-27T16:12:11.215Z,8.25
2022-11-27T16:14:41.980Z,9.02
2022-11-27T16:17:13.427Z,9.88
2022-11-27T16:19:43.924Z,10.33
2022-11-27T16:22:15.524Z,10.76
2022-11-27T16:24:46.007Z,10.85
2022-11-27T16:27:17.334Z,9.81
2022-11-27T16:29:47.897Z,8.64
2022-11-27T16:32:19.491Z,8.73
2022-11-27T16:34:51.089Z,9.78
2022-11-27T16:37:22.182Z,10.46
2022-11-27T16:39:52.661Z,10.89
2022-11-27T16:42:23.888Z,10.95
2022-11-27T16:44:54.853Z,9.90
2022-11-27T16:47:30.543Z,8.79
2022-11-27T16:50:04.643Z,8.63
2022-11-27T16:52:37.790Z,9.58
2022-11-27T16:55:09.665Z,10.13
2022-11-27T16:57:41.000Z,10.23
2022-11-27T17:00:15.647Z,9.10
2022-11-27T17:02:47.126Z,8.16
2022-11-27T17:05:18.118Z,8.64
2022-11-27T17:07:49.311Z,9.43
2022-11-27T17:10:20.606Z,10.08
2022-11-27T17:12:51.543Z,10.26
2022-11-27T17:15:22.073Z,9.16
2022-11-27T17:17:57.828Z,8.13
2022-11-27T17:20:28.462Z,7.53
2022-11-27T17:23:00.110Z,8.39
2022-11-27T17:25:31.969Z,9.44
2022-11-27T17:28:02.955Z,10.00
2022-11-27T17:30:37.930Z,10.26
2022-11-27T17:33:12.260Z,9.13
2022-11-27T17:35:42.786Z,8.03
2022-11-27T17:38:14.436Z,7.50
2022-11-27T17:40:45.131Z,8.38
2022-11-27T17:43:16.223Z,9.27
2022-11-27T17:45:46.745Z,9.73
2022-11-27T17:48:17.782Z,9.94
2022-11-27T17:50:48.306Z,9.20
2022-11-27T17:53:19.457Z,8.17
2022-11-27T17:55:50.473Z,7.54
2022-11-27T17:58:22.658Z,8.35
2022-11-27T18:00:53.078Z,9.36
2022-11-27T18:03:25.254Z,10.06
2022-11-27T18:05:56.912Z,10.44
2022-11-27T18:08:28.301Z,9.50
2022-11-27T18:10:58.901Z,8.26
2022-11-27T18:13:32.894Z,7.64
2022-11-27T18:16:08.314Z,8.44
2022-11-27T18:18:40.204Z,9.46
2022-11-27T18:21:16.741Z,10.11
2022-11-27T18:24:21.508Z,10.51
2022-11-27T18:29:32.406Z,9.15
2022-11-27T18:32:03.018Z,8.03
2022-11-27T18:34:34.265Z,7.57
2022-11-27T18:37:04.809Z,8.55
2022-11-27T18:39:35.937Z,9.48
2022-11-27T18:42:07.386Z,10.07
2022-11-27T18:44:45.113Z,10.52
2022-11-27T18:47:16.422Z,10.44
2022-11-27T18:49:49.321Z,9.22
2022-11-27T18:52:19.837Z,8.18
2022-11-27T18:54:51.231Z,7.67
2022-11-27T18:57:21.727Z,8.58
2022-11-27T18:59:52.424Z,9.50
2022-11-27T19:02:22.957Z,10.09
2022-11-27T19:04:54.118Z,10.43
2022-11-27T19:07:26.675Z,9.63
2022-11-27T19:09:57.704Z,8.53
2022-11-27T19:12:28.376Z,7.81
2022-11-27T19:15:00.536Z,8.46
2022-11-27T19:17:32.592Z,9.37
2022-11-27T19:20:04.313Z,10.04
2022-11-27T19:22:38.981Z,10.53
2022-11-27T19:25:10.864Z,9.70
2022-11-27T19:27:41.882Z,8.50
2022-11-27T19:30:13.856Z,7.62
2022-11-27T19:32:45.183Z,7.31
2022-11-27T19:35:16.930Z,8.45
2022-11-27T19:37:47.501Z,9.48
2022-11-27T19:40:19.758Z,10.12
2022-11-27T19:42:54.577Z,10.49
2022-11-27T19:45:29.084Z,10.52
2022-11-27T19:47:59.822Z,9.37
2022-11-27T19:50:31.339Z,8.26
2022-11-27T19:53:04.345Z,7.75
2022-11-27T19:55:36.426Z,8.68
2022-11-27T19:58:07.161Z,9.66
2022-11-27T20:00:38.854Z,10.31
2022-11-27T20:03:09.283Z,10.49
2022-11-27T20:05:40.488Z,9.67
2022-11-27T20:08:11.317Z,8.51
2022-11-27T20:10:42.465Z,7.92
2022-11-27T20:13:13.410Z,8.75
2022-11-27T20:15:44.646Z,9.75
2022-11-27T20:18:15.085Z,10.44
2022-11-27T20:20:47.013Z,10.78
2022-11-27T20:23:17.871Z,10.67
2022-11-27T20:25:50.800Z,9.37
2022-11-27T20:28:21.453Z,8.17
2022-11-27T20:30:58.510Z,8.39
2022-11-27T20:33:29.128Z,9.30
2022-11-27T20:36:02.730Z,9.74
2022-11-27T20:38:33.121Z,10.03
2022-11-27T20:41:07.498Z,9.38
2022-11-27T20:43:38.793Z,8.21
2022-11-27T20:46:10.378Z,7.55
2022-11-27T20:48:42.020Z,8.21
2022-11-27T20:51:13.985Z,8.95
2022-11-27T20:53:45.260Z,9.49
2022-11-27T20:56:18.701Z,9.75
2022-11-27T20:58:49.764Z,9.84
2022-11-27T21:01:23.439Z,9.30
2022-11-27T21:03:54.839Z,8.14
2022-11-27T21:06:27.272Z,7.58
2022-11-27T21:08:57.791Z,8.53
2022-11-27T21:11:30.779Z,9.48
2022-11-27T21:14:02.891Z,9.96
2022-11-27T21:16:36.376Z,10.16
2022-11-27T21:19:08.463Z,9.07
2022-11-27T21:21:39.568Z,8.07
2022-11-27T21:24:11.221Z,8.56
2022-11-27T21:26:42.979Z,9.25
2022-11-27T21:29:13.904Z,9.80
2022-11-27T21:31:47.443Z,10.18
2022-11-27T21:34:18.580Z,10.51
2022-11-27T21:36:51.553Z,9.96
2022-11-27T21:39:22.563Z,8.71
2022-11-27T21:41:54.309Z,7.72
2022-11-27T21:44:25.678Z,7.31
2022-11-27T21:46:57.163Z,8.36
2022-11-27T21:49:27.950Z,9.44
2022-11-27T21:51:59.302Z,10.04
2022-11-27T21:54:34.339Z,10.42
2022-11-27T21:57:05.376Z,9.65
2022-11-27T21:59:37.033Z,8.26
2022-11-27T22:02:11.201Z,8.04
2022-11-27T22:04:40.446Z,8.91
2022-11-27T22:07:12.192Z,9.58
2022-11-27T22:09:43.023Z,10.10
2022-11-27T22:12:13.880Z,10.01
2022-11-27T22:14:44.599Z,8.84
2022-11-27T22:17:16.266Z,7.79
2022-11-27T22:19:46.890Z,7.71
2022-11-27T22:22:18.096Z,8.40
2022-11-27T22:24:48.878Z,9.10
2022-11-27T22:27:20.729Z,9.70
2022-11-27T22:29:52.328Z,9.96
2022-11-27T22:32:24.754Z,9.53
2022-11-27T22:34:55.297Z,8.30
2022-11-27T22:37:27.613Z,7.29
2022-11-27T22:39:58.499Z,6.97
2022-11-27T22:42:29.543Z,7.91
2022-11-27T22:45:00.273Z,8.80
2022-11-27T22:47:31.582Z,9.51
2022-11-27T22:50:02.143Z,9.79
2022-11-27T22:52:34.018Z,9.91
2022-11-27T22:55:04.942Z,10.22
2022-11-27T22:57:36.793Z,10.28
2022-11-27T23:00:09.937Z,9.05
2022-11-27T23:02:41.751Z,7.94
2022-11-27T23:05:12.427Z,8.33
2022-11-27T23:07:43.732Z,9.28
2022-11-27T23:10:14.575Z,9.88
2022-11-27T23:12:46.885Z,10.25
2022-11-27T23:15:17.500Z,10.57
2022-11-27T23:17:48.699Z,10.15
2022-11-27T23:20:19.234Z,8.89
2022-11-27T23:22:50.202Z,7.76
2022-11-27T23:25:20.901Z,7.97
2022-11-27T23:27:52.659Z,8.94
2022-11-27T23:30:23.297Z,9.60
2022-11-27T23:32:54.172Z,10.08
2022-11-27T23:35:24.855Z,10.08
2022-11-27T23:37:55.790Z,8.82
2022-11-27T23:40:26.420Z,7.79
2022-11-27T23:42:57.367Z,8.22
2022-11-27T23:45:28.056Z,8.78
2022-11-27T23:47:59.244Z,9.29
2022-11-27T23:50:30.180Z,9.59
2022-11-27T23:53:01.137Z,9.71
2022-11-27T23:55:31.803Z,8.91
2022-11-27T23:58:03.205Z,7.74
